Sunday, May 27, 2018, 5:53 PM GMT
Back to Local

CYHU, Saint Hubert Airport

Location: , , Canada Lat: 45.517
Local Time: 5:53 PM GMT (17:53 GMT) Lon: -73.417
Time Zone: GMT Elev: 88 ft

Show me the last for .
Show Coded

Time T Td Feel RH Dir Speed Gust Alt SLP Vis Weather Sky Remarks
2018-05-27 17:26 68 55 - 64 170° 18 - 30.05 30.05 9 OVC050 None
2018-05-27 17:10 68 55 - 64 160° 13 - 30.05 30.05 9 -RA OVC050 None
2018-05-27 17:00 68 55 - 64 170° 12 - 30.05 30.05 9 BKN055 OVC068 None
2018-05-27 16:00 70 54 - 56 160° 13 - 30.05 30.06 9 OVC050 None
2018-05-27 15:00 68 54 - 60 140° 9 - 30.06 30.06 9 FEW048 BKN060 BKN150 None
2018-05-27 14:00 64 52 - 63 90° 6 - 30.06 30.06 9 BKN060 OVC140 None
2018-05-27 13:00 59 48 - 67 20° 8 - 30.05 30.06 9 OVC041 None
2018-05-27 12:00 55 46 - 71 10° 8 - 30.05 30.05 9 OVC039 None
2018-05-27 11:00 55 45 - 66 10° 8 - 30.03 30.03 9 BKN034 None
2018-05-27 10:00 52 43 - 71 10° 9 - 30.02 30.02 9 SCT190 BKN210 BKN230 None
2018-05-27 09:00 52 43 - 71 10° 9 - 30.02 30.02 9 BKN049 OVC210 None
2018-05-27 08:00 52 43 - 71 10° 8 - 30.01 30.01 9 BKN220 OVC240 None
2018-05-27 07:00 52 43 - 71 20° 9 - 30.00 30.00 9 BKN220 BKN240 None
2018-05-27 06:00 52 43 - 71 20° 12 - 29.99 30.00 9 FEW210 BKN250 None
2018-05-27 05:00 52 41 - 66 30° 9 - 30.00 30.00 9 CLR None
2018-05-27 04:00 54 43 - 66 30° 9 - 29.99 30.00 9 SCT240 None
2018-05-27 03:00 57 43 - 58 30° 8 - 29.98 29.98 9 BKN240 None
2018-05-27 02:00 57 43 - 58 50° 7 - 29.96 29.97 9 BKN230 None
2018-05-27 01:00 61 43 - 51 50° 7 - 29.94 29.94 9 SCT210 OVC230 None
2018-05-27 00:00 66 43 - 42 70° 7 - 29.91 29.92 9 BKN230 None
2018-05-26 23:00 68 46 - 45 50° 7 - 29.89 29.90 9 BKN220 None
2018-05-26 22:00 72 39 - 30 50° 12 - 29.88 29.88 9 BKN230 None
2018-05-26 21:00 73 39 - 29 50° 9 - 29.87 29.87 9 BKN230 None
2018-05-26 20:00 72 50 76 46 80° 9 - 29.85 29.86 9 BKN230 None
2018-05-26 19:00 72 52 76 49 80° 5 - 29.84 29.85 9 BKN220 None
2018-05-26 18:00 70 52 - 52 30° 10 - 29.83 29.83 9 BKN210 None

Support USWX by starting your Amazon purchase here.